createdAt,value
2023-02-22T00:00:45.724Z,0.00
2023-02-22T00:01:45.675Z,0.00
2023-02-22T00:02:45.696Z,0.00
2023-02-22T00:03:45.652Z,0.00
2023-02-22T00:04:45.639Z,0.00
2023-02-22T00:05:45.620Z,0.00
2023-02-22T00:06:45.643Z,0.00
2023-02-22T00:07:45.597Z,0.00
2023-02-22T00:08:45.595Z,0.00
2023-02-22T00:09:45.628Z,0.00
2023-02-22T00:10:45.585Z,0.00
2023-02-22T00:11:45.590Z,0.00
2023-02-22T00:12:45.536Z,0.00
2023-02-22T00:13:45.559Z,0.00
2023-02-22T00:14:45.567Z,0.00
2023-02-22T00:15:45.702Z,0.00
2023-02-22T00:16:45.496Z,0.00
2023-02-22T00:17:45.517Z,0.00
2023-02-22T00:18:45.493Z,0.00
2023-02-22T00:19:45.538Z,0.00
2023-02-22T00:20:45.472Z,0.00
2023-02-22T00:21:45.478Z,0.00
2023-02-22T00:22:45.419Z,0.00
2023-02-22T00:23:45.452Z,0.00
2023-02-22T00:24:45.417Z,0.00
2023-02-22T00:25:45.402Z,0.00
2023-02-22T00:26:45.393Z,0.00
2023-02-22T00:27:45.382Z,0.00
2023-02-22T00:28:45.351Z,0.00
2023-02-22T00:29:45.363Z,0.00
2023-02-22T00:30:45.333Z,0.00
2023-02-22T00:31:45.503Z,0.00
2023-02-22T00:32:45.334Z,0.00
2023-02-22T00:33:45.315Z,0.00
2023-02-22T00:34:45.340Z,0.00
2023-02-22T00:35:45.275Z,0.00
2023-02-22T00:36:45.267Z,0.00
2023-02-22T00:37:45.254Z,0.00
2023-02-22T00:38:45.290Z,0.00
2023-02-22T00:39:45.240Z,0.00
2023-02-22T00:40:45.298Z,0.00
2023-02-22T00:41:45.293Z,0.00
2023-02-22T00:42:45.198Z,0.00
2023-02-22T00:43:45.185Z,0.00
2023-02-22T00:44:45.168Z,0.00
2023-02-22T00:45:45.228Z,0.00
2023-02-22T00:46:45.169Z,0.00
2023-02-22T00:47:45.160Z,0.00
2023-02-22T00:48:45.135Z,0.00
2023-02-22T00:49:45.120Z,0.00
2023-02-22T00:50:45.099Z,0.00
2023-02-22T00:51:45.094Z,0.00
2023-02-22T00:52:45.131Z,0.00
2023-02-22T00:53:45.068Z,0.00
2023-02-22T00:54:45.059Z,0.00
2023-02-22T00:55:45.059Z,0.00
2023-02-22T00:56:45.043Z,0.00
2023-02-22T00:57:45.277Z,0.00
2023-02-22T00:58:45.020Z,0.00
2023-02-22T00:59:45.007Z,0.00
2023-02-22T01:00:45.001Z,0.00
2023-02-22T01:01:45.008Z,0.00
2023-02-22T01:02:44.970Z,0.00
2023-02-22T01:03:44.991Z,0.00
2023-02-22T01:04:44.957Z,0.00
2023-02-22T01:05:44.937Z,0.00
2023-02-22T01:06:44.964Z,0.00
2023-02-22T01:07:44.912Z,0.00
2023-02-22T01:08:44.933Z,0.00
2023-02-22T01:09:44.901Z,0.00
2023-02-22T01:10:44.893Z,0.00
2023-02-22T01:11:44.870Z,0.00
2023-02-22T01:12:44.861Z,0.00
2023-02-22T01:13:44.845Z,0.00
2023-02-22T01:14:44.866Z,0.00
2023-02-22T01:15:44.858Z,0.00
2023-02-22T01:16:44.852Z,0.00
2023-02-22T01:17:44.804Z,0.00
2023-02-22T01:18:44.814Z,0.00
2023-02-22T01:19:44.785Z,0.00
2023-02-22T01:20:44.844Z,0.00
2023-02-22T01:21:44.758Z,0.00
2023-02-22T01:22:44.757Z,0.00
2023-02-22T01:23:44.739Z,0.00
2023-02-22T01:24:44.756Z,0.00
2023-02-22T01:25:44.716Z,0.00
2023-02-22T01:26:44.726Z,0.00
2023-02-22T01:27:44.710Z,0.00
2023-02-22T01:28:44.682Z,0.00
2023-02-22T01:29:44.675Z,0.00
2023-02-22T01:30:44.815Z,0.00
2023-02-22T01:31:44.701Z,0.00
2023-02-22T01:32:44.637Z,0.00
2023-02-22T01:33:44.635Z,0.00
2023-02-22T01:34:44.625Z,0.00
2023-02-22T01:35:44.604Z,0.00
2023-02-22T01:36:44.632Z,0.00
2023-02-22T01:37:44.611Z,0.00
2023-02-22T01:38:44.583Z,0.00
2023-02-22T01:39:44.569Z,0.00
2023-02-22T01:40:44.560Z,0.00
2023-02-22T01:41:44.529Z,0.00
2023-02-22T01:42:44.549Z,0.00
2023-02-22T01:43:44.548Z,0.00
2023-02-22T01:44:44.520Z,0.00
2023-02-22T01:45:44.538Z,0.00
2023-02-22T01:46:44.481Z,0.00
2023-02-22T01:47:44.472Z,0.00
2023-02-22T01:48:44.542Z,0.00
2023-02-22T01:49:44.492Z,0.00
2023-02-22T01:50:44.438Z,0.00
2023-02-22T01:51:44.429Z,0.00
2023-02-22T01:52:44.435Z,0.00
2023-02-22T01:53:44.401Z,0.00
2023-02-22T01:54:44.461Z,0.00
2023-02-22T01:55:44.413Z,0.00
2023-02-22T01:56:44.364Z,0.00
2023-02-22T01:57:44.361Z,0.00
2023-02-22T01:58:44.362Z,0.00
2023-02-22T01:59:44.337Z,0.00
2023-02-22T02:00:44.403Z,0.00
2023-02-22T02:01:44.309Z,0.00
2023-02-22T02:02:44.321Z,0.00
2023-02-22T02:03:44.314Z,0.00
2023-02-22T02:04:44.307Z,0.00
2023-02-22T02:05:44.270Z,0.00
2023-02-22T02:06:44.364Z,0.00
2023-02-22T02:07:44.249Z,0.00
2023-02-22T02:08:44.251Z,0.00
2023-02-22T02:09:44.241Z,0.00
2023-02-22T02:10:44.209Z,0.00
2023-02-22T02:11:44.207Z,0.00
2023-02-22T02:12:44.210Z,0.00
2023-02-22T02:13:44.193Z,0.00
2023-02-22T02:14:44.172Z,0.00
2023-02-22T02:15:44.402Z,0.00
2023-02-22T02:16:44.170Z,0.00
2023-02-22T02:17:44.122Z,0.00
2023-02-22T02:18:44.152Z,0.00
2023-02-22T02:19:44.145Z,0.00
2023-02-22T02:20:44.136Z,0.00
2023-02-22T02:21:44.088Z,0.00
2023-02-22T02:22:44.073Z,0.00
2023-02-22T02:23:44.071Z,0.00
2023-02-22T02:24:44.082Z,0.00
2023-02-22T02:25:44.088Z,0.00
2023-02-22T02:26:44.045Z,0.00
2023-02-22T02:27:44.023Z,0.00
2023-02-22T02:28:44.002Z,0.00
2023-02-22T02:29:44.000Z,0.00
2023-02-22T02:30:44.014Z,0.00
2023-02-22T02:31:44.088Z,0.00
2023-02-22T02:32:44.093Z,0.00
2023-02-22T02:33:43.963Z,0.00
2023-02-22T02:34:43.963Z,0.00
2023-02-22T02:35:43.944Z,0.00
2023-02-22T02:36:43.962Z,0.00
2023-02-22T02:37:43.917Z,0.00
2023-02-22T02:38:43.975Z,0.00
2023-02-22T02:39:43.889Z,0.00
2023-02-22T02:40:43.924Z,0.00
2023-02-22T02:41:43.866Z,0.00
2023-02-22T02:42:43.875Z,0.00
2023-02-22T02:43:43.898Z,0.00
2023-02-22T02:44:43.835Z,0.00
2023-02-22T02:45:43.816Z,0.00
2023-02-22T02:46:43.845Z,0.00
2023-02-22T02:47:43.880Z,0.00
2023-02-22T02:48:43.795Z,0.00
2023-02-22T02:49:43.784Z,0.00
2023-02-22T02:50:43.767Z,0.00
2023-02-22T02:51:43.748Z,0.00
2023-02-22T02:52:43.785Z,0.00
2023-02-22T02:53:43.735Z,0.00
2023-02-22T02:54:43.774Z,0.00
2023-02-22T02:55:43.741Z,0.00
2023-02-22T02:56:43.752Z,0.00
2023-02-22T02:57:43.776Z,0.00
2023-02-22T02:58:43.714Z,0.00
2023-02-22T02:59:43.669Z,0.00
2023-02-22T03:00:43.669Z,0.00
2023-02-22T03:01:43.690Z,0.00
2023-02-22T03:02:43.637Z,0.00
2023-02-22T03:03:43.662Z,0.00
2023-02-22T03:04:43.628Z,0.00
2023-02-22T03:05:43.637Z,0.00
2023-02-22T03:06:43.596Z,0.00
2023-02-22T03:07:43.663Z,0.00
2023-02-22T03:08:43.567Z,0.00
2023-02-22T03:09:43.591Z,0.00
2023-02-22T03:10:43.561Z,0.00
2023-02-22T03:11:43.550Z,0.00
2023-02-22T03:12:43.533Z,0.00
2023-02-22T03:13:43.540Z,0.00
2023-02-22T03:14:43.519Z,0.00
2023-02-22T03:15:43.538Z,0.00
2023-02-22T03:16:43.565Z,0.00
2023-02-22T03:17:43.463Z,0.00
2023-02-22T03:18:43.461Z,0.00
2023-02-22T03:19:43.438Z,0.00
2023-02-22T03:20:43.430Z,0.00
2023-02-22T03:21:43.459Z,0.00
2023-02-22T03:22:43.411Z,0.00
2023-02-22T03:23:43.434Z,0.00
2023-02-22T03:24:43.389Z,0.00
2023-02-22T03:25:43.407Z,0.00
2023-02-22T03:26:43.375Z,0.00
2023-02-22T03:27:43.400Z,0.00
2023-02-22T03:28:43.382Z,0.00
2023-02-22T03:29:43.334Z,0.00
2023-02-22T03:30:43.315Z,0.00
2023-02-22T03:31:43.310Z,0.00
2023-02-22T03:32:43.359Z,0.00
2023-02-22T03:33:43.304Z,0.00
2023-02-22T03:34:43.299Z,0.00
2023-02-22T03:35:43.316Z,0.00
2023-02-22T03:36:43.244Z,0.00
2023-02-22T03:37:43.253Z,0.00
2023-02-22T03:38:43.267Z,0.00
2023-02-22T03:39:43.243Z,0.00
2023-02-22T03:40:43.204Z,0.00
2023-02-22T03:41:43.195Z,0.00
2023-02-22T03:42:43.187Z,0.00
2023-02-22T03:43:43.177Z,0.00
2023-02-22T03:44:43.182Z,0.00
2023-02-22T03:45:43.158Z,0.00
2023-02-22T03:46:43.175Z,0.00
2023-02-22T03:47:43.132Z,0.00
2023-02-22T03:48:43.115Z,0.00
2023-02-22T03:49:43.140Z,0.00
2023-02-22T03:50:43.228Z,0.00
2023-02-22T03:51:43.085Z,0.00
2023-02-22T03:52:43.077Z,0.00
2023-02-22T03:53:43.055Z,0.00
2023-02-22T03:54:43.056Z,0.00
2023-02-22T03:55:43.079Z,0.00
2023-02-22T03:56:43.031Z,0.00
2023-02-22T03:57:43.033Z,0.00
2023-02-22T03:58:42.996Z,0.00
2023-02-22T03:59:42.986Z,0.00
2023-02-22T04:00:42.975Z,0.00
2023-02-22T04:01:43.034Z,0.00
2023-02-22T04:02:43.017Z,0.00
2023-02-22T04:03:42.986Z,0.00
2023-02-22T04:04:43.017Z,0.00
2023-02-22T04:05:42.915Z,0.00
2023-02-22T04:06:42.906Z,0.00
2023-02-22T04:07:42.939Z,0.00
2023-02-22T04:08:42.890Z,0.00
2023-02-22T04:09:42.899Z,0.00
2023-02-22T04:10:42.867Z,0.00
2023-02-22T04:11:42.883Z,0.00
2023-02-22T04:12:42.894Z,0.00
2023-02-22T04:13:42.847Z,0.00
2023-02-22T04:14:42.861Z,0.00
2023-02-22T04:15:42.822Z,0.00
2023-02-22T04:16:42.794Z,0.00
2023-02-22T04:17:42.810Z,0.00
2023-02-22T04:18:42.795Z,0.00
2023-02-22T04:19:42.789Z,0.00
2023-02-22T04:20:42.762Z,0.00
2023-02-22T04:21:42.784Z,0.00
2023-02-22T04:22:42.744Z,0.00
2023-02-22T04:23:42.698Z,0.00
2023-02-22T04:24:42.745Z,0.00
2023-02-22T04:25:42.703Z,0.00
2023-02-22T04:26:42.697Z,0.00
2023-02-22T04:27:42.660Z,0.00
2023-02-22T04:28:42.657Z,0.00
2023-02-22T04:29:42.705Z,0.00
2023-02-22T04:30:42.682Z,0.00
2023-02-22T04:31:42.668Z,0.00
2023-02-22T04:32:42.619Z,0.00
2023-02-22T04:33:42.629Z,0.00
2023-02-22T04:34:42.589Z,0.00
2023-02-22T04:35:42.571Z,0.00
2023-02-22T04:36:42.610Z,0.00
2023-02-22T04:37:42.539Z,0.00
2023-02-22T04:38:42.557Z,0.00
2023-02-22T04:39:42.594Z,0.00
2023-02-22T04:40:42.547Z,0.00
2023-02-22T04:41:42.529Z,0.00
2023-02-22T04:42:42.510Z,0.00
2023-02-22T04:43:42.562Z,0.00
2023-02-22T04:44:42.512Z,0.00
2023-02-22T04:45:42.468Z,0.00
2023-02-22T04:46:42.534Z,0.00
2023-02-22T04:47:42.445Z,0.00
2023-02-22T04:48:42.438Z,0.00
2023-02-22T04:49:42.432Z,0.00
2023-02-22T04:50:42.426Z,0.00
2023-02-22T04:51:42.444Z,0.00
2023-02-22T04:52:42.399Z,0.00
2023-02-22T04:53:42.398Z,0.00
2023-02-22T04:54:42.358Z,0.00
2023-02-22T04:55:42.369Z,0.00
2023-02-22T04:56:42.320Z,0.00
2023-02-22T04:57:42.336Z,0.00
2023-02-22T04:58:42.340Z,0.00
2023-02-22T04:59:42.336Z,0.00
2023-02-22T05:00:42.300Z,0.00
2023-02-22T05:01:42.320Z,0.00
2023-02-22T05:02:42.320Z,0.00
2023-02-22T05:03:42.244Z,0.00
2023-02-22T05:04:42.255Z,0.00
2023-02-22T05:05:42.258Z,0.00
2023-02-22T05:06:42.220Z,0.00
2023-02-22T05:07:42.212Z,0.00
2023-02-22T05:08:42.232Z,0.00
2023-02-22T05:09:42.183Z,0.00
2023-02-22T05:10:42.168Z,0.00
2023-02-22T05:11:42.191Z,0.00
2023-02-22T05:12:42.161Z,0.00
2023-02-22T05:13:42.144Z,0.00
2023-02-22T05:14:42.132Z,0.00
2023-02-22T05:15:42.220Z,0.00
2023-02-22T05:16:42.160Z,0.00
2023-02-22T05:17:42.095Z,0.00
2023-02-22T05:18:42.085Z,0.00
2023-02-22T05:19:42.066Z,0.00
2023-02-22T05:20:42.089Z,0.00
2023-02-22T05:21:42.050Z,0.00
2023-02-22T05:22:42.041Z,0.00
2023-02-22T05:23:42.032Z,0.00
2023-02-22T05:24:42.036Z,0.00
2023-02-22T05:25:42.014Z,0.00
2023-02-22T05:26:41.990Z,0.00
2023-02-22T05:27:42.033Z,0.00
2023-02-22T05:28:41.962Z,0.00
2023-02-22T05:29:41.953Z,0.00
2023-02-22T05:30:42.044Z,0.00
2023-02-22T05:31:42.187Z,0.00
2023-02-22T05:32:41.923Z,0.00
2023-02-22T05:33:41.954Z,0.00
2023-02-22T05:34:41.897Z,0.00
2023-02-22T05:35:41.888Z,0.00
2023-02-22T05:36:41.882Z,0.00
2023-02-22T05:37:41.875Z,0.00
2023-02-22T05:38:41.856Z,0.00
2023-02-22T05:39:41.876Z,0.00
2023-02-22T05:40:41.843Z,0.00
2023-02-22T05:41:41.832Z,0.00
2023-02-22T05:42:41.817Z,0.00
2023-02-22T05:43:41.795Z,0.00
2023-02-22T05:44:41.786Z,0.00
2023-02-22T05:45:41.869Z,0.00
2023-02-22T05:46:41.791Z,0.00
2023-02-22T05:47:41.765Z,0.00
2023-02-22T05:48:41.873Z,0.00
2023-02-22T05:49:41.745Z,0.00
2023-02-22T05:50:41.826Z,0.00
2023-02-22T05:51:41.793Z,0.00
2023-02-22T05:52:41.732Z,0.00
2023-02-22T05:53:41.685Z,0.00
2023-02-22T05:54:41.678Z,0.00
2023-02-22T05:55:41.676Z,0.00
2023-02-22T05:56:41.690Z,0.00
2023-02-22T05:57:41.648Z,0.00
2023-02-22T05:58:41.661Z,0.00
2023-02-22T05:59:41.645Z,0.00
2023-02-22T06:00:41.622Z,0.00
2023-02-22T06:01:41.662Z,0.00
2023-02-22T06:02:41.601Z,0.00
2023-02-22T06:03:41.595Z,0.00
2023-02-22T06:04:41.564Z,0.00
2023-02-22T06:05:41.654Z,0.00
2023-02-22T06:06:41.544Z,0.00
2023-02-22T06:07:41.589Z,0.00
2023-02-22T06:08:41.522Z,0.00
2023-02-22T06:09:41.503Z,0.00
2023-02-22T06:10:41.502Z,0.00
2023-02-22T06:11:41.483Z,0.00
2023-02-22T06:12:41.483Z,0.00
2023-02-22T06:13:41.492Z,0.00
2023-02-22T06:14:41.454Z,0.00
2023-02-22T06:15:41.445Z,0.00
2023-02-22T06:16:41.442Z,0.00
2023-02-22T06:17:41.413Z,0.00
2023-02-22T06:18:41.468Z,0.00
2023-02-22T06:19:41.386Z,0.00
2023-02-22T06:20:41.405Z,0.00
2023-02-22T06:21:41.366Z,0.00
2023-02-22T06:22:41.361Z,0.00
2023-02-22T06:23:41.358Z,0.00
2023-02-22T06:24:41.387Z,0.00
2023-02-22T06:25:41.341Z,0.00
2023-02-22T06:26:41.318Z,0.00
2023-02-22T06:27:41.296Z,0.00
2023-02-22T06:28:41.313Z,0.00
2023-02-22T06:29:41.308Z,0.00
2023-02-22T06:30:41.295Z,0.00
2023-02-22T06:31:41.346Z,0.00
2023-02-22T06:32:41.248Z,0.00
2023-02-22T06:33:41.230Z,0.00
2023-02-22T06:34:41.234Z,5.62
2023-02-22T06:35:41.259Z,5.62
2023-02-22T06:36:41.228Z,5.62
2023-02-22T06:37:41.187Z,5.62
2023-02-22T06:38:41.184Z,5.62
2023-02-22T06:39:41.184Z,5.62
2023-02-22T06:40:41.154Z,5.62
2023-02-22T06:41:41.201Z,5.62
2023-02-22T06:42:41.157Z,5.62
2023-02-22T06:43:41.144Z,5.62
2023-02-22T06:44:41.113Z,5.62
2023-02-22T06:45:41.112Z,5.62
2023-02-22T06:46:41.154Z,5.62
2023-02-22T06:47:41.074Z,11.25
2023-02-22T06:48:41.091Z,11.25
2023-02-22T06:49:41.045Z,11.25
2023-02-22T06:50:41.051Z,11.25
2023-02-22T06:51:41.025Z,11.25
2023-02-22T06:52:41.059Z,11.25
2023-02-22T06:53:41.011Z,11.25
2023-02-22T06:54:40.985Z,11.25
2023-02-22T06:55:40.997Z,16.88
2023-02-22T06:56:41.001Z,16.88
2023-02-22T06:57:40.964Z,16.88
2023-02-22T06:58:40.999Z,16.88
2023-02-22T06:59:40.965Z,16.88
2023-02-22T07:00:40.943Z,16.88
2023-02-22T07:01:40.927Z,16.88
2023-02-22T07:02:41.006Z,16.88
2023-02-22T07:03:41.127Z,16.88
2023-02-22T07:04:43.298Z,16.88
2023-02-22T07:05:40.868Z,22.50
2023-02-22T07:06:40.856Z,22.50
2023-02-22T07:07:40.917Z,22.50
2023-02-22T07:08:40.836Z,22.50
2023-02-22T07:09:40.854Z,22.50
2023-02-22T07:10:40.838Z,22.50
2023-02-22T07:11:40.814Z,22.50
2023-02-22T07:12:40.799Z,22.50
2023-02-22T07:13:40.811Z,22.50
2023-02-22T07:14:40.771Z,22.50
2023-02-22T07:15:40.779Z,22.50
2023-02-22T07:16:40.846Z,22.50
2023-02-22T07:17:40.742Z,22.50
2023-02-22T07:18:40.733Z,22.50
2023-02-22T07:19:40.721Z,22.50
2023-02-22T07:20:40.719Z,22.50
2023-02-22T07:21:40.694Z,28.12
2023-02-22T07:22:40.712Z,28.12
2023-02-22T07:23:40.706Z,28.12
2023-02-22T07:24:40.703Z,28.12
2023-02-22T07:25:40.666Z,28.12
2023-02-22T07:26:40.681Z,33.75
2023-02-22T07:27:40.624Z,33.75
2023-02-22T07:28:40.687Z,33.75
2023-02-22T07:29:40.621Z,33.75
2023-02-22T07:30:40.644Z,33.75
2023-02-22T07:31:40.589Z,33.75
2023-02-22T07:32:40.647Z,33.75
2023-02-22T07:33:40.605Z,33.75
2023-02-22T07:34:40.570Z,33.75
2023-02-22T07:35:40.547Z,33.75
2023-02-22T07:36:40.686Z,33.75
2023-02-22T07:37:40.533Z,33.75
2023-02-22T07:38:40.584Z,33.75
2023-02-22T07:39:40.527Z,33.75
2023-02-22T07:40:40.494Z,39.38
2023-02-22T07:41:40.497Z,39.38
2023-02-22T07:42:40.464Z,39.38
2023-02-22T07:43:40.479Z,39.38
2023-02-22T07:44:40.441Z,45.00
2023-02-22T07:45:40.498Z,45.00
2023-02-22T07:46:40.417Z,50.62
2023-02-22T07:47:40.482Z,45.00
2023-02-22T07:48:40.389Z,45.00
2023-02-22T07:49:40.389Z,50.62
2023-02-22T07:50:40.375Z,45.00
2023-02-22T07:51:40.394Z,50.62
2023-02-22T07:52:40.344Z,56.25
2023-02-22T07:53:40.362Z,56.25
2023-02-22T07:54:40.325Z,56.25
2023-02-22T07:55:40.306Z,56.25
2023-02-22T07:56:40.354Z,56.25
2023-02-22T07:57:40.315Z,61.88
2023-02-22T07:58:40.279Z,61.88
2023-02-22T07:59:40.269Z,61.88
2023-02-22T08:00:40.279Z,61.88
2023-02-22T08:01:40.318Z,67.50
2023-02-22T08:02:40.263Z,67.50
2023-02-22T08:03:40.260Z,67.50
2023-02-22T08:04:40.224Z,67.50
2023-02-22T08:05:40.211Z,73.12
2023-02-22T08:06:40.209Z,73.12
2023-02-22T08:07:40.199Z,73.12
2023-02-22T08:08:40.162Z,73.12
2023-02-22T08:09:40.156Z,73.12
2023-02-22T08:10:40.147Z,73.12
2023-02-22T08:11:40.132Z,73.12
2023-02-22T08:12:40.121Z,73.12
2023-02-22T08:13:40.154Z,73.12
2023-02-22T08:14:40.096Z,73.12
2023-02-22T08:15:40.079Z,67.50
2023-02-22T08:16:40.129Z,73.12
2023-02-22T08:17:40.074Z,73.12
2023-02-22T08:18:40.044Z,78.75
2023-02-22T08:19:40.069Z,78.75
2023-02-22T08:20:40.036Z,78.75
2023-02-22T08:21:40.014Z,78.75
2023-02-22T08:22:40.001Z,84.38
2023-02-22T08:23:39.980Z,84.38
2023-02-22T08:24:39.971Z,90.00
2023-02-22T08:25:39.982Z,95.62
2023-02-22T08:26:39.962Z,95.62
2023-02-22T08:27:39.947Z,101.25
2023-02-22T08:28:40.153Z,101.25
2023-02-22T08:29:39.911Z,101.25
2023-02-22T08:30:40.588Z,84.38
2023-02-22T08:31:40.382Z,90.00
2023-02-22T08:32:39.931Z,95.62
2023-02-22T08:33:39.875Z,90.00
2023-02-22T08:34:39.863Z,84.38
2023-02-22T08:35:39.858Z,90.00
2023-02-22T08:36:39.863Z,90.00
2023-02-22T08:37:39.822Z,90.00
2023-02-22T08:38:39.814Z,78.75
2023-02-22T08:39:39.815Z,78.75
2023-02-22T08:40:39.816Z,73.12
2023-02-22T08:41:39.797Z,73.12
2023-02-22T08:42:39.856Z,78.75
2023-02-22T08:43:39.752Z,73.12
2023-02-22T08:44:39.761Z,73.12
2023-02-22T08:45:39.767Z,78.75
2023-02-22T08:46:39.710Z,78.75
2023-02-22T08:47:39.721Z,78.75
2023-02-22T08:48:39.721Z,84.38
2023-02-22T08:49:39.680Z,78.75
2023-02-22T08:50:39.660Z,84.38
2023-02-22T08:51:39.660Z,78.75
2023-02-22T08:52:39.740Z,78.75
2023-02-22T08:53:39.656Z,84.38
2023-02-22T08:54:39.631Z,90.00
2023-02-22T08:55:39.626Z,95.62
2023-02-22T08:56:39.664Z,101.25
2023-02-22T08:57:39.634Z,101.25
2023-02-22T08:58:39.580Z,101.25
2023-02-22T08:59:39.595Z,118.12
2023-02-22T09:00:39.559Z,135.00
2023-02-22T09:01:39.786Z,118.12
2023-02-22T09:02:39.541Z,101.25
2023-02-22T09:03:39.559Z,101.25
2023-02-22T09:04:39.547Z,106.88
2023-02-22T09:05:39.541Z,112.50
2023-02-22T09:06:39.500Z,112.50
2023-02-22T09:07:39.470Z,112.50
2023-02-22T09:08:39.490Z,118.12
2023-02-22T09:09:39.448Z,123.75
2023-02-22T09:10:39.461Z,123.75
2023-02-22T09:11:39.461Z,123.75
2023-02-22T09:12:39.421Z,123.75
2023-02-22T09:13:39.409Z,118.12
2023-02-22T09:14:39.389Z,112.50
2023-02-22T09:15:48.743Z,129.38
2023-02-22T09:16:39.448Z,135.00
2023-02-22T09:17:39.383Z,140.62
2023-02-22T09:18:44.103Z,140.62
2023-02-22T09:19:40.376Z,140.62
2023-02-22T09:20:39.383Z,135.00
2023-02-22T09:21:39.405Z,118.12
2023-02-22T09:22:39.314Z,123.75
2023-02-22T09:23:39.299Z,118.12
2023-02-22T09:24:39.295Z,118.12
2023-02-22T09:25:39.260Z,129.38
2023-02-22T09:26:39.344Z,140.62
2023-02-22T09:27:39.279Z,140.62
2023-02-22T09:28:39.247Z,129.38
2023-02-22T09:29:39.222Z,135.00
2023-02-22T09:30:39.314Z,140.62
2023-02-22T09:31:39.289Z,146.25
2023-02-22T09:32:39.351Z,151.88
2023-02-22T09:33:39.199Z,146.25
2023-02-22T09:34:39.174Z,151.88
2023-02-22T09:35:39.177Z,151.88
2023-02-22T09:36:39.142Z,146.25
2023-02-22T09:37:39.141Z,146.25
2023-02-22T09:38:39.112Z,140.62
2023-02-22T09:39:39.312Z,140.62
2023-02-22T09:40:39.093Z,146.25
2023-02-22T09:41:39.081Z,135.00
2023-02-22T09:42:39.064Z,135.00
2023-02-22T09:43:39.068Z,135.00
2023-02-22T09:44:39.068Z,135.00
2023-02-22T09:45:39.111Z,140.62
2023-02-22T09:46:39.030Z,140.62
2023-02-22T09:47:39.050Z,135.00
2023-02-22T09:48:39.053Z,135.00
2023-02-22T09:49:38.984Z,140.62
2023-02-22T09:50:39.057Z,135.00
2023-02-22T09:51:38.988Z,146.25
2023-02-22T09:52:38.958Z,151.88
2023-02-22T09:53:38.936Z,151.88
2023-02-22T09:54:38.944Z,157.50
2023-02-22T09:55:38.948Z,163.12
2023-02-22T09:56:38.926Z,163.12
2023-02-22T09:57:38.895Z,168.75
2023-02-22T09:58:40.788Z,163.12
2023-02-22T09:59:38.876Z,157.50
2023-02-22T10:00:38.928Z,157.50
2023-02-22T10:01:38.859Z,151.88
2023-02-22T10:02:38.859Z,146.25
2023-02-22T10:03:38.883Z,146.25
2023-02-22T10:04:38.826Z,151.88
2023-02-22T10:05:38.847Z,151.88
2023-02-22T10:06:38.789Z,151.88
2023-02-22T10:07:38.780Z,151.88
2023-02-22T10:08:38.786Z,151.88
2023-02-22T10:09:38.895Z,151.88
2023-02-22T10:10:38.753Z,157.50
2023-02-22T10:11:38.744Z,163.12
2023-02-22T10:12:38.724Z,157.50
2023-02-22T10:13:38.740Z,151.88
2023-02-22T10:14:38.729Z,151.88
2023-02-22T10:15:38.717Z,151.88
2023-02-22T10:16:38.733Z,157.50
2023-02-22T10:17:38.701Z,157.50
2023-02-22T10:18:38.658Z,151.88
2023-02-22T10:19:38.673Z,151.88
2023-02-22T10:20:38.659Z,151.88
2023-02-22T10:21:38.632Z,151.88
2023-02-22T10:22:38.608Z,151.88
2023-02-22T10:23:38.623Z,157.50
2023-02-22T10:24:38.578Z,157.50
2023-02-22T10:25:38.572Z,151.88
2023-02-22T10:26:38.599Z,146.25
2023-02-22T10:27:38.553Z,140.62
2023-02-22T10:28:38.555Z,140.62
2023-02-22T10:29:38.536Z,140.62
2023-02-22T10:30:38.586Z,140.62
2023-02-22T10:31:38.620Z,129.38
2023-02-22T10:32:38.554Z,112.50
2023-02-22T10:33:38.486Z,112.50
2023-02-22T10:34:38.468Z,106.88
2023-02-22T10:35:38.466Z,106.88
2023-02-22T10:36:38.500Z,112.50
2023-02-22T10:37:38.565Z,112.50
2023-02-22T10:38:38.432Z,118.12
2023-02-22T10:39:38.439Z,123.75
2023-02-22T10:40:39.124Z,123.75
2023-02-22T10:41:38.388Z,129.38
2023-02-22T10:42:38.471Z,135.00
2023-02-22T10:43:38.381Z,146.25
2023-02-22T10:44:38.360Z,151.88
2023-02-22T10:45:38.382Z,157.50
2023-02-22T10:46:38.332Z,163.12
2023-02-22T10:47:38.324Z,174.38
2023-02-22T10:48:38.355Z,185.62
2023-02-22T10:49:38.307Z,185.62
2023-02-22T10:50:38.286Z,185.62
2023-02-22T10:51:38.272Z,185.62
2023-02-22T10:52:38.263Z,191.25
2023-02-22T10:53:38.264Z,208.12
2023-02-22T10:54:38.255Z,213.75
2023-02-22T10:55:38.291Z,213.75
2023-02-22T10:56:38.226Z,213.75
2023-02-22T10:57:38.199Z,219.38
2023-02-22T10:58:38.198Z,219.38
2023-02-22T10:59:38.224Z,219.38
2023-02-22T11:00:38.231Z,202.50
2023-02-22T11:01:38.267Z,196.88
2023-02-22T11:02:38.163Z,191.25
2023-02-22T11:03:38.188Z,202.50
2023-02-22T11:04:38.245Z,180.00
2023-02-22T11:05:38.161Z,168.75
2023-02-22T11:06:38.110Z,174.38
2023-02-22T11:07:38.157Z,163.12
2023-02-22T11:08:38.080Z,174.38
2023-02-22T11:09:38.109Z,168.75
2023-02-22T11:10:38.055Z,180.00
2023-02-22T11:11:38.077Z,180.00
2023-02-22T11:12:38.034Z,168.75
2023-02-22T11:13:38.011Z,174.38
2023-02-22T11:14:38.099Z,180.00
2023-02-22T11:15:38.001Z,180.00
2023-02-22T11:16:38.116Z,180.00
2023-02-22T11:17:37.975Z,180.00
2023-02-22T11:18:37.973Z,185.62
2023-02-22T11:19:37.948Z,213.75
2023-02-22T11:20:37.949Z,196.88
2023-02-22T11:21:37.953Z,208.12
2023-02-22T11:22:37.951Z,196.88
2023-02-22T11:23:37.908Z,196.88
2023-02-22T11:24:48.817Z,202.50
2023-02-22T11:25:38.897Z,185.62
2023-02-22T11:26:37.867Z,191.25
2023-02-22T11:27:37.859Z,185.62
2023-02-22T11:28:37.871Z,174.38
2023-02-22T11:29:37.847Z,163.12
2023-02-22T11:30:37.877Z,163.12
2023-02-22T11:31:37.933Z,157.50
2023-02-22T11:32:37.816Z,163.12
2023-02-22T11:33:37.809Z,163.12
2023-02-22T11:34:37.799Z,157.50
2023-02-22T11:35:37.778Z,157.50
2023-02-22T11:36:37.853Z,163.12
2023-02-22T11:37:37.750Z,174.38
2023-02-22T11:38:37.734Z,191.25
2023-02-22T11:39:37.752Z,191.25
2023-02-22T11:40:37.716Z,191.25
2023-02-22T11:41:37.701Z,202.50
2023-02-22T11:42:37.672Z,208.12
2023-02-22T11:43:37.685Z,213.75
2023-02-22T11:44:37.645Z,219.38
2023-02-22T11:45:41.883Z,219.38
2023-02-22T11:46:38.694Z,219.38
2023-02-22T11:47:37.654Z,225.00
2023-02-22T11:48:37.596Z,236.25
2023-02-22T11:49:37.606Z,253.12
2023-02-22T11:50:37.580Z,253.12
2023-02-22T11:51:37.602Z,264.38
2023-02-22T11:52:37.629Z,270.00
2023-02-22T11:53:37.591Z,253.12
2023-02-22T11:54:37.529Z,258.75
2023-02-22T11:55:43.291Z,247.50
2023-02-22T11:56:38.597Z,236.25
2023-02-22T11:57:37.546Z,225.00
2023-02-22T11:58:37.518Z,219.38
2023-02-22T11:59:37.474Z,225.00
2023-02-22T12:00:37.498Z,225.00
2023-02-22T12:01:37.495Z,225.00
2023-02-22T12:02:38.613Z,219.38
2023-02-22T12:03:37.568Z,219.38
2023-02-22T12:04:38.003Z,219.38
2023-02-22T12:05:37.404Z,225.00
2023-02-22T12:06:37.404Z,219.38
2023-02-22T12:07:37.400Z,213.75
2023-02-22T12:08:37.376Z,208.12
2023-02-22T12:09:37.402Z,202.50
2023-02-22T12:10:37.352Z,202.50
2023-02-22T12:11:37.372Z,202.50
2023-02-22T12:12:37.319Z,196.88
2023-02-22T12:13:37.329Z,191.25
2023-02-22T12:14:37.290Z,185.62
2023-02-22T12:15:37.319Z,185.62
2023-02-22T12:16:37.288Z,185.62
2023-02-22T12:17:37.421Z,185.62
2023-02-22T12:18:37.361Z,185.62
2023-02-22T12:19:37.251Z,185.62
2023-02-22T12:20:37.264Z,185.62
2023-02-22T12:21:37.270Z,185.62
2023-02-22T12:22:37.220Z,180.00
2023-02-22T12:23:37.195Z,180.00
2023-02-22T12:24:37.244Z,180.00
2023-02-22T12:25:37.181Z,180.00
2023-02-22T12:26:37.190Z,180.00
2023-02-22T12:27:37.144Z,180.00
2023-02-22T12:28:37.218Z,180.00
2023-02-22T12:29:37.125Z,180.00
2023-02-22T12:30:37.158Z,180.00
2023-02-22T12:31:37.242Z,180.00
2023-02-22T12:32:37.122Z,180.00
2023-02-22T12:33:37.120Z,180.00
2023-02-22T12:34:37.111Z,185.62
2023-02-22T12:35:37.169Z,180.00
2023-02-22T12:36:37.071Z,180.00
2023-02-22T12:37:37.040Z,180.00
2023-02-22T12:38:37.028Z,185.62
2023-02-22T12:39:51.816Z,185.62
2023-02-22T12:40:37.999Z,185.62
2023-02-22T12:41:37.001Z,191.25
2023-02-22T12:42:37.006Z,191.25
2023-02-22T12:43:36.974Z,191.25
2023-02-22T12:44:37.130Z,202.50
2023-02-22T12:45:36.991Z,208.12
2023-02-22T12:46:36.971Z,202.50
2023-02-22T12:47:36.952Z,208.12
2023-02-22T12:48:36.912Z,213.75
2023-02-22T12:49:36.897Z,208.12
2023-02-22T12:50:36.897Z,208.12
2023-02-22T12:51:36.872Z,208.12
2023-02-22T12:52:36.855Z,213.75
2023-02-22T12:53:36.934Z,213.75
2023-02-22T12:54:36.845Z,213.75
2023-02-22T12:55:36.820Z,202.50
2023-02-22T12:56:36.849Z,202.50
2023-02-22T12:57:36.829Z,208.12